createdAt,value
2022-09-12T00:00:32.699Z,16.30
2022-09-12T00:03:30.875Z,16.39
2022-09-12T00:06:33.547Z,16.37
2022-09-12T00:09:16.482Z,16.65
2022-09-12T00:12:04.606Z,16.59
2022-09-12T00:14:52.896Z,16.43
2022-09-12T00:17:27.553Z,16.37
2022-09-12T00:20:18.634Z,16.19
2022-09-12T00:22:59.535Z,16.17
2022-09-12T00:25:37.934Z,16.11
2022-09-12T00:28:35.669Z,15.89
2022-09-12T00:31:31.915Z,15.91
2022-09-12T00:34:20.777Z,15.87
2022-09-12T00:36:55.634Z,15.94
2022-09-12T00:39:28.510Z,16.24
2022-09-12T00:42:31.007Z,15.95
2022-09-12T00:45:41.902Z,15.97
2022-09-12T00:48:38.258Z,15.66
2022-09-12T00:51:17.997Z,15.94
2022-09-12T00:56:56.384Z,16.08
2022-09-12T01:02:49.604Z,15.99
2022-09-12T01:05:17.603Z,15.92
2022-09-12T01:07:49.374Z,15.91
2022-09-12T01:10:30.971Z,16.05
2022-09-12T01:13:10.710Z,16.12
2022-09-12T01:15:57.208Z,16.20
2022-09-12T01:19:04.508Z,16.40
2022-09-12T01:25:18.596Z,16.08
2022-09-12T01:28:19.194Z,15.95
2022-09-12T01:31:34.178Z,15.81
2022-09-12T01:37:37.892Z,15.74
2022-09-12T01:40:51.373Z,15.56
2022-09-12T01:43:36.416Z,15.55
2022-09-12T01:46:58.178Z,15.44
2022-09-12T01:49:54.477Z,15.51
2022-09-12T01:52:41.776Z,15.15
2022-09-12T01:55:31.149Z,15.24
2022-09-12T01:58:13.469Z,15.35
2022-09-12T02:01:09.362Z,15.18
2022-09-12T02:03:45.125Z,15.14
2022-09-12T02:06:20.625Z,15.43
2022-09-12T02:08:56.173Z,15.27
2022-09-12T02:11:23.568Z,15.18
2022-09-12T02:14:03.743Z,15.35
2022-09-12T02:16:39.834Z,15.22
2022-09-12T02:19:16.077Z,15.21
2022-09-12T02:21:52.536Z,15.10
2022-09-12T02:24:23.348Z,15.35
2022-09-12T02:26:58.437Z,15.06
2022-09-12T02:29:26.289Z,15.30
2022-09-12T02:31:59.635Z,15.48
2022-09-12T02:34:39.921Z,15.45
2022-09-12T02:37:46.306Z,15.54
2022-09-12T02:40:16.091Z,15.52
2022-09-12T02:42:43.771Z,15.42
2022-09-12T02:45:15.192Z,15.29
2022-09-12T02:48:05.989Z,15.21
2022-09-12T02:50:33.398Z,15.22
2022-09-12T02:53:06.990Z,15.04
2022-09-12T02:55:43.330Z,14.96
2022-09-12T02:58:17.920Z,15.21
2022-09-12T03:01:24.612Z,15.38
2022-09-12T03:04:34.060Z,15.22
2022-09-12T03:07:27.895Z,14.97
2022-09-12T03:10:02.440Z,14.78
2022-09-12T03:12:44.836Z,14.72
2022-09-12T03:15:28.544Z,14.72
2022-09-12T03:18:06.782Z,14.70
2022-09-12T03:21:10.256Z,14.55
2022-09-12T03:23:41.734Z,14.52
2022-09-12T03:26:35.191Z,14.55
2022-09-12T03:29:06.532Z,14.49
2022-09-12T03:31:42.618Z,14.49
2022-09-12T03:34:16.217Z,14.45
2022-09-12T03:36:51.909Z,14.42
2022-09-12T03:39:26.441Z,14.37
2022-09-12T03:41:55.446Z,14.40
2022-09-12T03:44:24.780Z,14.47
2022-09-12T03:46:52.942Z,14.44
2022-09-12T03:49:25.359Z,14.44
2022-09-12T03:51:55.749Z,14.38
2022-09-12T03:54:28.796Z,14.34
2022-09-12T03:56:59.441Z,14.29
2022-09-12T03:59:27.745Z,14.32
2022-09-12T04:02:01.395Z,14.20
2022-09-12T04:04:30.756Z,14.27
2022-09-12T04:09:48.140Z,14.13
2022-09-12T04:12:26.518Z,14.20
2022-09-12T04:14:56.531Z,14.26
2022-09-12T04:17:31.143Z,14.30
2022-09-12T04:20:20.554Z,14.52
2022-09-12T04:22:56.748Z,14.51
2022-09-12T04:25:32.691Z,14.62
2022-09-12T04:28:16.604Z,14.53
2022-09-12T04:30:52.822Z,14.50
2022-09-12T04:33:20.165Z,14.25
2022-09-12T04:35:48.061Z,14.44
2022-09-12T04:38:21.803Z,14.51
2022-09-12T04:40:50.295Z,14.59
2022-09-12T04:43:19.267Z,14.55
2022-09-12T04:45:46.489Z,14.40
2022-09-12T04:48:16.143Z,14.62
2022-09-12T04:50:44.109Z,14.57
2022-09-12T04:53:11.480Z,14.72
2022-09-12T04:55:38.650Z,14.90
2022-09-12T04:58:07.885Z,14.60
2022-09-12T05:00:38.685Z,14.78
2022-09-12T05:03:14.228Z,15.01
2022-09-12T05:05:42.139Z,15.21
2022-09-12T05:08:13.816Z,15.52
2022-09-12T05:11:21.573Z,15.74
2022-09-12T05:14:06.338Z,15.36
2022-09-12T05:17:10.870Z,14.91
2022-09-12T05:20:17.609Z,15.23
2022-09-12T05:23:06.111Z,15.10
2022-09-12T05:25:59.777Z,15.25
2022-09-12T05:28:49.318Z,15.24
2022-09-12T05:31:42.735Z,15.53
2022-09-12T05:34:11.610Z,15.54
2022-09-12T05:36:59.051Z,15.51
2022-09-12T05:39:34.637Z,15.43
2022-09-12T05:42:17.323Z,15.96
2022-09-12T05:45:02.394Z,17.31
2022-09-12T05:47:44.017Z,18.59
2022-09-12T05:50:25.621Z,18.09
2022-09-12T05:53:24.754Z,18.55
2022-09-12T05:56:14.848Z,17.55
2022-09-12T05:58:48.137Z,17.82
2022-09-12T06:01:21.351Z,18.52
2022-09-12T06:03:55.222Z,18.04
2022-09-12T06:06:27.811Z,18.77
2022-09-12T06:09:08.326Z,18.15
2022-09-12T06:11:46.791Z,18.74
2022-09-12T06:14:23.248Z,19.24
2022-09-12T06:17:04.623Z,18.15
2022-09-12T06:19:34.912Z,18.82
2022-09-12T06:22:35.035Z,18.06
2022-09-12T06:25:12.742Z,18.87
2022-09-12T06:27:49.920Z,18.80
2022-09-12T06:30:27.734Z,18.71
2022-09-12T06:32:57.856Z,18.00
2022-09-12T06:35:26.794Z,18.46
2022-09-12T06:38:01.923Z,18.87
2022-09-12T06:40:44.195Z,18.61
2022-09-12T06:43:19.964Z,19.30
2022-09-12T06:45:55.257Z,18.99
2022-09-12T06:48:30.444Z,18.79
2022-09-12T06:51:32.106Z,19.24
2022-09-12T06:54:11.736Z,19.42
2022-09-12T06:56:53.765Z,19.10
2022-09-12T06:59:27.755Z,18.78
2022-09-12T07:02:02.989Z,19.30
2022-09-12T07:04:58.403Z,18.71
2022-09-12T07:07:31.540Z,18.55
2022-09-12T07:10:02.689Z,18.71
2022-09-12T07:12:54.925Z,18.79
2022-09-12T07:15:40.390Z,18.28
2022-09-12T07:18:16.360Z,18.32
2022-09-12T07:20:58.080Z,18.42
2022-09-12T07:23:30.197Z,18.37
2022-09-12T07:26:07.317Z,18.48
2022-09-12T07:28:42.417Z,19.05
2022-09-12T07:31:24.727Z,19.55
2022-09-12T07:33:59.965Z,19.10
2022-09-12T07:36:43.189Z,18.46
2022-09-12T07:39:52.355Z,18.50
2022-09-12T07:42:32.125Z,18.61
2022-09-12T07:45:06.191Z,18.43
2022-09-12T07:47:42.327Z,18.83
2022-09-12T07:50:19.330Z,19.24
2022-09-12T07:53:04.169Z,20.13
2022-09-12T07:55:37.671Z,20.41
2022-09-12T07:58:34.766Z,20.30
2022-09-12T08:01:29.410Z,20.86
2022-09-12T08:04:05.377Z,20.85
2022-09-12T08:06:44.694Z,20.01
2022-09-12T08:09:32.152Z,19.69
2022-09-12T08:12:07.723Z,20.59
2022-09-12T08:15:45.166Z,21.44
2022-09-12T08:18:30.446Z,20.30
2022-09-12T08:21:55.991Z,20.73
2022-09-12T08:24:32.310Z,20.15
2022-09-12T08:27:15.968Z,19.98
2022-09-12T08:30:00.088Z,20.86
2022-09-12T08:32:32.005Z,20.36
2022-09-12T08:35:09.947Z,20.08
2022-09-12T08:37:41.982Z,20.23
2022-09-12T08:40:21.082Z,20.69
2022-09-12T08:43:33.863Z,20.59
2022-09-12T08:46:15.234Z,21.60
2022-09-12T08:48:46.341Z,21.09
2022-09-12T08:51:47.273Z,21.36
2022-09-12T08:54:36.372Z,21.55
2022-09-12T08:57:12.772Z,22.76
2022-09-12T08:59:50.928Z,23.47
2022-09-12T09:06:05.374Z,22.48
2022-09-12T09:12:27.176Z,23.35
2022-09-12T09:16:04.503Z,22.20
2022-09-12T09:18:39.361Z,22.35
2022-09-12T09:22:04.110Z,22.49
2022-09-12T09:24:50.503Z,22.81
2022-09-12T09:27:41.592Z,22.82
2022-09-12T09:30:43.381Z,22.52
2022-09-12T09:33:21.568Z,23.40
2022-09-12T09:36:35.846Z,24.05
2022-09-12T09:42:37.920Z,22.96
2022-09-12T09:45:20.748Z,22.39
2022-09-12T09:48:18.290Z,22.97
2022-09-12T09:51:20.742Z,22.86
2022-09-12T09:54:23.961Z,23.48
2022-09-12T09:56:56.954Z,24.06
2022-09-12T09:59:35.615Z,24.29
2022-09-12T10:02:26.739Z,23.87
2022-09-12T10:05:01.417Z,24.06
2022-09-12T10:07:29.447Z,24.19
2022-09-12T10:10:22.894Z,23.95
2022-09-12T10:13:08.707Z,23.32
2022-09-12T10:15:38.801Z,22.78
2022-09-12T10:18:11.059Z,22.99
2022-09-12T10:20:47.573Z,23.57
2022-09-12T10:23:37.781Z,23.16
2022-09-12T10:26:12.510Z,23.38
2022-09-12T10:28:55.218Z,23.97
2022-09-12T10:31:29.554Z,23.53
2022-09-12T10:34:00.296Z,23.68
2022-09-12T10:36:41.014Z,22.82
2022-09-12T10:39:18.698Z,22.96
2022-09-12T10:41:47.207Z,22.11
2022-09-12T10:44:26.457Z,21.96
2022-09-12T10:46:57.970Z,22.06
2022-09-12T10:49:40.407Z,23.26
2022-09-12T10:52:28.563Z,23.93
2022-09-12T10:54:57.854Z,23.84
2022-09-12T10:57:31.905Z,24.18
2022-09-12T10:59:59.627Z,23.15
2022-09-12T11:02:47.799Z,23.37
2022-09-12T11:05:56.565Z,22.91
2022-09-12T11:08:40.491Z,22.52
2022-09-12T11:11:50.519Z,22.36
2022-09-12T11:15:11.460Z,21.80
2022-09-12T11:18:02.064Z,22.18
2022-09-12T11:20:32.386Z,21.81
2022-09-12T11:23:41.984Z,22.93
2022-09-12T11:26:54.532Z,23.41
2022-09-12T11:29:45.826Z,23.86
2022-09-12T11:32:56.518Z,24.24
2022-09-12T11:35:32.687Z,25.08
2022-09-12T11:38:31.665Z,24.12
2022-09-12T11:41:32.322Z,23.36
2022-09-12T11:44:40.047Z,22.92
2022-09-12T11:47:14.055Z,23.50
2022-09-12T11:49:47.707Z,23.78
2022-09-12T11:52:29.451Z,23.37
2022-09-12T11:55:20.037Z,22.59
2022-09-12T11:58:01.947Z,23.06
2022-09-12T12:01:00.157Z,22.93
2022-09-12T12:03:31.394Z,24.14
2022-09-12T12:06:28.977Z,24.82
2022-09-12T12:09:00.540Z,24.59
2022-09-12T12:11:34.672Z,23.94
2022-09-12T12:14:14.926Z,24.10
2022-09-12T12:16:43.673Z,23.66
2022-09-12T12:19:15.908Z,24.14
2022-09-12T12:21:49.609Z,24.50
2022-09-12T12:24:26.241Z,25.02
2022-09-12T12:26:58.961Z,24.33
2022-09-12T12:29:44.391Z,24.08
2022-09-12T12:32:16.656Z,24.28
2022-09-12T12:34:49.220Z,23.47
2022-09-12T12:37:18.930Z,23.49
2022-09-12T12:39:50.967Z,23.43
2022-09-12T12:42:50.103Z,23.22
2022-09-12T12:45:20.876Z,23.05
2022-09-12T12:48:09.957Z,23.72
2022-09-12T12:51:35.977Z,23.98
2022-09-12T12:54:34.364Z,24.30
2022-09-12T12:57:16.472Z,24.25
2022-09-12T12:59:49.235Z,25.35
2022-09-12T13:02:28.312Z,25.67
2022-09-12T13:04:58.474Z,25.57
2022-09-12T13:07:32.974Z,24.93
2022-09-12T13:10:02.320Z,25.26
2022-09-12T13:12:47.163Z,25.05
2022-09-12T13:15:33.887Z,25.36
2022-09-12T13:18:05.395Z,25.79
2022-09-12T13:20:38.645Z,25.95
2022-09-12T13:23:29.825Z,25.26
2022-09-12T13:26:00.004Z,25.82
2022-09-12T13:28:30.148Z,25.41
2022-09-12T13:31:04.759Z,24.97
2022-09-12T13:34:01.282Z,25.22
2022-09-12T13:36:43.277Z,24.74
2022-09-12T13:39:29.375Z,24.25
2022-09-12T13:42:36.415Z,23.85
2022-09-12T13:45:27.054Z,24.14
2022-09-12T13:48:02.151Z,24.17
2022-09-12T13:51:04.066Z,23.78
2022-09-12T13:53:54.108Z,23.73
2022-09-12T13:56:22.919Z,23.62
2022-09-12T13:58:54.930Z,23.66
2022-09-12T14:01:36.746Z,23.42
2022-09-12T14:04:49.462Z,23.66
2022-09-12T14:08:16.976Z,24.08
2022-09-12T14:10:50.551Z,23.78
2022-09-12T14:13:26.337Z,23.77
2022-09-12T14:15:58.378Z,23.60
2022-09-12T14:18:29.841Z,23.76
2022-09-12T14:21:09.578Z,23.82
2022-09-12T14:23:42.732Z,23.62
2022-09-12T14:26:13.741Z,23.24
2022-09-12T14:28:44.636Z,23.02
2022-09-12T14:31:35.773Z,22.67
2022-09-12T14:34:17.292Z,22.97
2022-09-12T14:36:52.440Z,22.71
2022-09-12T14:39:34.277Z,22.63
2022-09-12T14:42:18.408Z,22.40
2022-09-12T14:45:15.688Z,22.66
2022-09-12T14:47:50.426Z,22.59
2022-09-12T14:50:22.481Z,22.66
2022-09-12T14:53:25.986Z,22.91
2022-09-12T14:55:59.535Z,22.87
2022-09-12T14:58:28.490Z,22.66
2022-09-12T15:01:09.751Z,23.00
2022-09-12T15:03:53.428Z,23.01
2022-09-12T15:06:31.746Z,22.87
2022-09-12T15:09:08.646Z,22.81
2022-09-12T15:11:36.129Z,22.83
2022-09-12T15:14:14.080Z,22.84
2022-09-12T15:16:42.281Z,22.80
2022-09-12T15:19:09.810Z,22.51
2022-09-12T15:21:37.058Z,22.17
2022-09-12T15:24:05.010Z,22.13
2022-09-12T15:26:32.223Z,22.15
2022-09-12T15:28:59.434Z,22.06
2022-09-12T15:31:29.605Z,22.03
2022-09-12T15:33:59.534Z,21.77
2022-09-12T15:41:37.075Z,21.96
2022-09-12T15:44:07.923Z,22.02
2022-09-12T15:46:35.438Z,22.06
2022-09-12T15:49:03.050Z,21.94
2022-09-12T15:51:30.608Z,21.84
2022-09-12T15:54:04.673Z,22.08
2022-09-12T15:56:33.633Z,22.21
2022-09-12T15:59:07.440Z,22.28
2022-09-12T16:01:36.656Z,22.06
2022-09-12T16:04:28.536Z,21.89
2022-09-12T16:06:57.021Z,21.85
2022-09-12T16:09:25.568Z,21.72
2022-09-12T16:11:54.768Z,21.66
2022-09-12T16:14:23.592Z,21.61
2022-09-12T16:16:56.142Z,21.70
2022-09-12T16:19:23.675Z,21.66
2022-09-12T16:21:51.487Z,21.51
2022-09-12T16:24:20.345Z,21.58
2022-09-12T16:26:48.099Z,21.55
2022-09-12T16:29:18.518Z,21.45
2022-09-12T16:31:46.031Z,21.48
2022-09-12T16:34:13.879Z,21.07
2022-09-12T16:36:41.105Z,21.19
2022-09-12T16:39:08.397Z,21.14
2022-09-12T16:41:38.309Z,21.10
2022-09-12T16:44:10.284Z,21.08
2022-09-12T16:46:39.637Z,20.89
2022-09-12T16:49:09.758Z,21.01
2022-09-12T16:51:37.063Z,20.83
2022-09-12T16:54:05.551Z,20.84
2022-09-12T16:56:34.877Z,20.88
2022-09-12T16:59:02.183Z,20.88
2022-09-12T17:01:35.006Z,20.84
2022-09-12T17:04:23.620Z,20.81
2022-09-12T17:06:51.443Z,20.76
2022-09-12T17:09:18.753Z,20.76
2022-09-12T17:11:47.886Z,20.56
2022-09-12T17:14:15.340Z,20.65
2022-09-12T17:16:50.748Z,20.67
2022-09-12T17:19:23.101Z,20.67
2022-09-12T17:21:50.321Z,20.38
2022-09-12T17:24:19.177Z,20.64
2022-09-12T17:26:47.041Z,20.66
2022-09-12T17:29:15.145Z,20.84
2022-09-12T17:31:44.013Z,20.92
2022-09-12T17:34:14.646Z,20.91
2022-09-12T17:36:45.718Z,20.94
2022-09-12T17:39:13.846Z,20.96
2022-09-12T17:41:42.920Z,20.76
2022-09-12T17:44:15.233Z,20.78
2022-09-12T17:46:43.476Z,20.76
2022-09-12T17:49:16.561Z,20.40
2022-09-12T17:51:44.381Z,20.48
2022-09-12T17:54:15.813Z,20.50
2022-09-12T17:56:45.555Z,20.43
2022-09-12T17:59:21.687Z,20.48
2022-09-12T18:02:07.775Z,20.29
2022-09-12T18:04:35.737Z,20.41
2022-09-12T18:07:06.072Z,20.16
2022-09-12T18:09:33.748Z,20.24
2022-09-12T18:12:01.645Z,20.29
2022-09-12T18:14:29.622Z,20.26
2022-09-12T18:16:57.366Z,20.42
2022-09-12T18:19:25.137Z,20.48
2022-09-12T18:21:52.545Z,20.26
2022-09-12T18:24:20.910Z,20.11
2022-09-12T18:26:48.470Z,20.19
2022-09-12T18:29:17.029Z,20.06
2022-09-12T18:31:45.134Z,20.08
2022-09-12T18:34:13.950Z,20.06
2022-09-12T18:36:42.865Z,19.81
2022-09-12T18:39:11.254Z,19.58
2022-09-12T18:41:39.218Z,19.43
2022-09-12T18:44:07.384Z,19.22
2022-09-12T18:46:35.349Z,19.02
2022-09-12T18:49:03.865Z,19.08
2022-09-12T18:51:36.060Z,18.89
2022-09-12T18:54:11.957Z,18.77
2022-09-12T18:56:41.055Z,18.75
2022-09-12T18:59:12.877Z,18.74
2022-09-12T19:01:41.670Z,18.87
2022-09-12T19:04:12.121Z,19.01
2022-09-12T19:06:42.685Z,18.98
2022-09-12T19:09:12.609Z,18.93
2022-09-12T19:12:18.212Z,18.81
2022-09-12T19:15:27.834Z,18.79
2022-09-12T19:18:24.439Z,18.62
2022-09-12T19:21:54.674Z,18.64
2022-09-12T19:24:36.007Z,18.84
2022-09-12T19:27:05.765Z,18.83
2022-09-12T19:29:35.901Z,18.57
2022-09-12T19:32:12.700Z,18.39
2022-09-12T19:34:40.351Z,18.23
2022-09-12T19:37:17.203Z,18.17
2022-09-12T19:39:50.158Z,18.10
2022-09-12T19:42:17.579Z,18.05
2022-09-12T19:44:46.016Z,18.28
2022-09-12T19:47:13.520Z,18.50
2022-09-12T19:49:40.785Z,18.68
2022-09-12T19:52:08.443Z,18.73
2022-09-12T19:54:36.078Z,18.71
2022-09-12T19:57:03.601Z,18.41
2022-09-12T19:59:30.897Z,18.22
2022-09-12T20:01:58.677Z,18.05
2022-09-12T20:04:27.630Z,17.92
2022-09-12T20:06:57.641Z,17.74
2022-09-12T20:09:25.209Z,17.63
2022-09-12T20:11:53.284Z,17.55
2022-09-12T20:14:23.702Z,17.53
2022-09-12T20:16:51.439Z,17.45
2022-09-12T20:19:18.754Z,17.61
2022-09-12T20:21:46.356Z,17.43
2022-09-12T20:24:17.548Z,17.38
2022-09-12T20:26:45.233Z,17.32
2022-09-12T20:29:25.304Z,17.31
2022-09-12T20:32:03.414Z,17.57
2022-09-12T20:37:41.422Z,17.72
2022-09-12T20:40:10.998Z,17.64
2022-09-12T20:42:51.944Z,17.57
2022-09-12T20:45:21.649Z,17.51
2022-09-12T20:47:51.506Z,17.56
2022-09-12T20:50:26.871Z,17.79
2022-09-12T20:52:58.264Z,17.57
2022-09-12T20:55:26.630Z,17.81
2022-09-12T20:57:53.927Z,17.78
2022-09-12T21:00:22.457Z,17.74
2022-09-12T21:02:52.678Z,17.84
2022-09-12T21:05:24.529Z,17.81
2022-09-12T21:08:11.491Z,17.94
2022-09-12T21:10:45.877Z,17.91
2022-09-12T21:13:15.848Z,17.90
2022-09-12T21:15:44.287Z,17.89
2022-09-12T21:18:14.881Z,17.92
2022-09-12T21:20:44.441Z,17.66
2022-09-12T21:23:12.282Z,17.71
2022-09-12T21:25:41.586Z,17.64
2022-09-12T21:28:09.209Z,17.61
2022-09-12T21:30:36.551Z,17.82
2022-09-12T21:33:09.217Z,17.71
2022-09-12T21:35:45.234Z,17.98
2022-09-12T21:38:13.272Z,17.73
2022-09-12T21:40:44.323Z,17.59
2022-09-12T21:43:15.300Z,17.37
2022-09-12T21:45:44.839Z,17.28
2022-09-12T21:48:23.466Z,17.47
2022-09-12T21:50:57.436Z,17.79
2022-09-12T21:53:29.161Z,17.95
2022-09-12T21:56:02.986Z,17.93
2022-09-12T21:58:30.690Z,17.78
2022-09-12T22:01:02.259Z,17.59
2022-09-12T22:03:30.389Z,17.36
2022-09-12T22:06:00.611Z,17.61
2022-09-12T22:08:32.910Z,17.43
2022-09-12T22:11:03.211Z,17.32
2022-09-12T22:13:32.638Z,17.44
2022-09-12T22:16:03.497Z,17.62
2022-09-12T22:18:36.824Z,17.66
2022-09-12T22:21:13.239Z,17.60
2022-09-12T22:24:00.741Z,17.37
2022-09-12T22:26:36.964Z,17.23
2022-09-12T22:29:05.970Z,17.22
2022-09-12T22:31:34.078Z,17.13
2022-09-12T22:34:04.020Z,17.04
2022-09-12T22:36:38.162Z,16.91
2022-09-12T22:39:07.741Z,16.94
2022-09-12T22:41:36.553Z,17.08
2022-09-12T22:44:04.944Z,17.28
2022-09-12T22:46:37.196Z,17.32
2022-09-12T22:49:07.825Z,17.37
2022-09-12T22:51:37.515Z,17.30
2022-09-12T22:54:12.227Z,17.22
2022-09-12T22:56:40.437Z,17.03
2022-09-12T22:59:10.001Z,16.88
2022-09-12T23:01:38.658Z,16.88
2022-09-12T23:04:07.790Z,16.83
2022-09-12T23:06:50.193Z,16.73
2022-09-12T23:09:35.805Z,16.65
2022-09-12T23:16:07.236Z,16.73
2022-09-12T23:18:36.713Z,16.75
2022-09-12T23:21:17.658Z,16.89
2022-09-12T23:23:49.250Z,16.77
2022-09-12T23:26:29.026Z,16.97
2022-09-12T23:29:04.309Z,16.87
2022-09-12T23:31:38.373Z,16.86
2022-09-12T23:34:12.189Z,16.64
2022-09-12T23:36:50.706Z,16.76
2022-09-12T23:39:21.356Z,16.98
2022-09-12T23:42:00.468Z,16.71
2022-09-12T23:44:29.553Z,16.57
2022-09-12T23:47:01.763Z,16.41
2022-09-12T23:49:35.874Z,16.61
2022-09-12T23:52:09.864Z,16.68
2022-09-12T23:54:39.441Z,16.77
2022-09-12T23:57:13.809Z,16.73
2022-09-12T23:59:47.152Z,16.82
